createdAt,value
2018-05-06T00:02:02.919Z,14.50
2018-05-06T00:04:30.408Z,14.40
2018-05-06T00:06:57.918Z,14.40
2018-05-06T00:09:25.407Z,14.40
2018-05-06T00:11:52.918Z,14.30
2018-05-06T00:14:20.408Z,14.30
2018-05-06T00:16:47.918Z,14.30
2018-05-06T00:19:15.410Z,14.20
2018-05-06T00:21:42.921Z,14.00
2018-05-06T00:24:10.412Z,14.00
2018-05-06T00:26:37.918Z,13.80
2018-05-06T00:29:05.407Z,13.70
2018-05-06T00:31:32.911Z,13.70
2018-05-06T00:34:00.794Z,13.50
2018-05-06T00:36:28.691Z,13.50
2018-05-06T00:38:56.243Z,13.50
2018-05-06T00:41:24.151Z,13.50
2018-05-06T00:43:51.652Z,13.50
2018-05-06T00:46:19.231Z,13.50
2018-05-06T00:48:46.691Z,13.50
2018-05-06T00:51:14.184Z,13.50
2018-05-06T00:53:41.691Z,13.50
2018-05-06T00:56:09.585Z,13.60
2018-05-06T00:58:37.091Z,13.60
2018-05-06T01:01:04.816Z,13.60
2018-05-06T01:03:32.719Z,13.70
2018-05-06T01:06:00.211Z,13.70
2018-05-06T01:08:27.716Z,13.60
2018-05-06T01:10:55.204Z,13.70
2018-05-06T01:13:22.723Z,13.60
2018-05-06T01:15:50.215Z,13.60
2018-05-06T01:18:17.718Z,13.60
2018-05-06T01:20:45.603Z,13.60
2018-05-06T01:23:13.123Z,13.60
2018-05-06T01:25:40.615Z,13.60
2018-05-06T01:28:08.132Z,13.60
2018-05-06T01:30:35.623Z,13.50
2018-05-06T01:33:03.128Z,13.50
2018-05-06T01:35:30.637Z,13.40
2018-05-06T01:37:58.153Z,13.40
2018-05-06T01:40:25.651Z,13.40
2018-05-06T01:42:53.159Z,13.40
2018-05-06T01:45:20.664Z,13.40
2018-05-06T01:47:48.169Z,13.30
2018-05-06T01:50:15.658Z,13.20
2018-05-06T01:52:43.168Z,13.20
2018-05-06T01:55:10.666Z,13.30
2018-05-06T01:57:38.171Z,13.30
2018-05-06T02:00:05.663Z,13.20
2018-05-06T02:02:33.171Z,13.20
2018-05-06T02:05:00.658Z,13.30
2018-05-06T02:07:28.193Z,13.20
2018-05-06T02:09:55.678Z,13.30
2018-05-06T02:12:23.219Z,13.30
2018-05-06T02:14:50.706Z,13.20
2018-05-06T02:17:18.198Z,13.10
2018-05-06T02:19:45.703Z,13.10
2018-05-06T02:22:13.583Z,13.10
2018-05-06T02:24:41.106Z,13.10
2018-05-06T02:27:08.599Z,13.10
2018-05-06T02:29:36.117Z,13.10
2018-05-06T02:32:03.599Z,13.10
2018-05-06T02:34:31.103Z,13.10
2018-05-06T02:36:58.600Z,13.10
2018-05-06T02:39:26.501Z,13.10
2018-05-06T02:41:54.003Z,13.10
2018-05-06T02:44:21.523Z,13.10
2018-05-06T02:46:49.411Z,13.10
2018-05-06T02:49:16.926Z,13.10
2018-05-06T02:51:44.418Z,13.10
2018-05-06T02:54:11.927Z,13.00
2018-05-06T02:56:39.823Z,12.80
2018-05-06T02:59:07.381Z,12.90
2018-05-06T03:01:34.872Z,12.80
2018-05-06T03:04:02.392Z,12.70
2018-05-06T03:06:29.883Z,12.70
2018-05-06T03:08:57.783Z,12.60
2018-05-06T03:11:25.280Z,12.60
2018-05-06T03:13:52.786Z,12.50
2018-05-06T03:16:20.275Z,12.50
2018-05-06T03:18:48.174Z,12.60
2018-05-06T03:21:15.663Z,12.70
2018-05-06T03:23:43.175Z,12.70
2018-05-06T03:26:10.667Z,12.60
2018-05-06T03:28:38.579Z,12.60
2018-05-06T03:31:06.120Z,12.60
2018-05-06T03:33:34.023Z,12.50
2018-05-06T03:36:01.511Z,12.60
2018-05-06T03:38:29.035Z,12.50
2018-05-06T03:40:56.919Z,12.40
2018-05-06T03:43:24.408Z,12.50
2018-05-06T03:45:51.918Z,12.40
2018-05-06T03:48:19.415Z,12.40
2018-05-06T03:50:46.929Z,12.50
2018-05-06T03:53:14.450Z,12.50
2018-05-06T03:55:41.956Z,12.60
2018-05-06T03:58:21.243Z,12.60
2018-05-06T04:00:48.754Z,12.60
2018-05-06T04:03:16.246Z,12.70
2018-05-06T04:05:43.835Z,12.70
2018-05-06T04:08:12.191Z,12.70
2018-05-06T04:10:40.099Z,12.70
2018-05-06T04:13:07.594Z,12.70
2018-05-06T04:15:35.105Z,12.70
2018-05-06T04:18:02.596Z,12.70
2018-05-06T04:20:30.501Z,12.60
2018-05-06T04:22:57.986Z,12.60
2018-05-06T04:25:25.494Z,12.60
2018-05-06T04:27:52.990Z,12.60
2018-05-06T04:30:20.503Z,12.60
2018-05-06T04:32:48.003Z,12.70
2018-05-06T04:35:15.511Z,12.70
2018-05-06T04:37:42.994Z,12.70
2018-05-06T04:40:10.506Z,12.80
2018-05-06T04:42:38.386Z,12.80
2018-05-06T04:45:05.890Z,12.80
2018-05-06T04:47:33.774Z,12.90
2018-05-06T04:50:01.679Z,12.90
2018-05-06T04:52:29.171Z,12.90
2018-05-06T04:54:56.688Z,13.00
2018-05-06T04:57:24.571Z,13.00
2018-05-06T04:59:52.475Z,13.00
2018-05-06T05:02:19.971Z,13.00
2018-05-06T05:04:47.481Z,13.00
2018-05-06T05:07:15.371Z,13.10
2018-05-06T05:09:43.259Z,13.20
2018-05-06T05:12:11.167Z,13.20
2018-05-06T05:14:38.651Z,13.20
2018-05-06T05:17:06.159Z,13.30
2018-05-06T05:19:33.647Z,13.40
2018-05-06T05:22:01.549Z,13.50
2018-05-06T05:24:29.039Z,13.50
2018-05-06T05:26:56.539Z,13.50
2018-05-06T05:29:24.031Z,13.60
2018-05-06T05:31:51.935Z,13.70
2018-05-06T05:34:19.423Z,13.70
2018-05-06T05:36:46.940Z,13.80
2018-05-06T05:39:14.435Z,13.80
2018-05-06T05:41:42.340Z,14.00
2018-05-06T05:44:09.835Z,14.00
2018-05-06T05:46:37.343Z,14.10
2018-05-06T05:49:05.229Z,14.30
2018-05-06T05:51:33.131Z,14.50
2018-05-06T05:54:00.622Z,14.50
2018-05-06T05:56:28.131Z,14.80
2018-05-06T05:58:55.632Z,15.00
2018-05-06T06:01:23.163Z,15.20
2018-05-06T06:03:50.660Z,15.50
2018-05-06T06:06:18.575Z,16.10
2018-05-06T06:08:46.076Z,16.10
2018-05-06T06:11:13.587Z,16.30
2018-05-06T06:13:41.471Z,16.50
2018-05-06T06:16:09.375Z,16.80
2018-05-06T06:18:36.860Z,16.80
2018-05-06T06:21:04.363Z,17.00
2018-05-06T06:23:31.851Z,17.30
2018-05-06T06:25:59.757Z,17.20
2018-05-06T06:28:27.243Z,17.20
2018-05-06T06:30:54.744Z,17.20
2018-05-06T06:33:22.247Z,17.40
2018-05-06T06:35:50.135Z,17.60
2018-05-06T06:38:18.052Z,17.60
2018-05-06T06:40:45.556Z,17.60
2018-05-06T06:43:13.054Z,17.80
2018-05-06T06:45:40.951Z,17.80
2018-05-06T06:48:08.494Z,17.80
2018-05-06T06:50:35.961Z,18.10
2018-05-06T06:53:03.470Z,18.30
2018-05-06T06:55:30.958Z,18.70
2018-05-06T06:57:58.474Z,19.10
2018-05-06T07:00:25.958Z,19.10
2018-05-06T07:02:53.935Z,19.30
2018-05-06T07:05:21.818Z,19.30
2018-05-06T07:07:49.720Z,19.60
2018-05-06T07:10:17.407Z,19.60
2018-05-06T07:12:44.911Z,19.70
2018-05-06T07:15:12.399Z,19.90
2018-05-06T07:17:40.304Z,20.30
2018-05-06T07:20:08.188Z,20.20
2018-05-06T07:22:35.690Z,20.20
2018-05-06T07:25:03.175Z,20.20
2018-05-06T07:27:30.674Z,20.40
2018-05-06T07:29:58.162Z,20.40
2018-05-06T07:32:26.069Z,20.60
2018-05-06T07:34:53.555Z,20.60
2018-05-06T07:37:21.055Z,20.70
2018-05-06T07:39:48.951Z,20.90
2018-05-06T07:42:16.857Z,21.20
2018-05-06T07:44:44.343Z,21.20
2018-05-06T07:47:11.858Z,21.20
2018-05-06T07:49:39.444Z,21.50
2018-05-06T07:52:07.339Z,21.50
2018-05-06T07:54:35.370Z,21.50
2018-05-06T07:57:02.900Z,21.40
2018-05-06T07:59:30.391Z,21.50
2018-05-06T08:01:57.896Z,21.50
2018-05-06T08:04:25.379Z,21.80
2018-05-06T08:06:52.867Z,21.90
2018-05-06T08:09:20.777Z,22.20
2018-05-06T08:11:48.267Z,22.20
2018-05-06T08:14:15.771Z,22.60
2018-05-06T08:16:43.255Z,22.70
2018-05-06T08:19:11.261Z,22.80
2018-05-06T08:21:38.790Z,22.80
2018-05-06T08:24:06.278Z,22.80
2018-05-06T08:26:34.164Z,23.10
2018-05-06T08:29:02.069Z,23.30
2018-05-06T08:31:29.550Z,23.30
2018-05-06T08:33:57.052Z,23.60
2018-05-06T08:36:24.547Z,23.30
2018-05-06T08:38:52.123Z,23.50
2018-05-06T08:41:20.014Z,23.90
2018-05-06T08:43:47.912Z,23.90
2018-05-06T08:46:15.395Z,23.90
2018-05-06T08:48:42.903Z,23.80
2018-05-06T08:51:10.395Z,23.80
2018-05-06T08:53:38.297Z,24.00
2018-05-06T08:56:05.795Z,24.00
2018-05-06T08:58:33.304Z,24.00
2018-05-06T09:01:00.788Z,24.00
2018-05-06T09:03:28.693Z,24.10
2018-05-06T09:05:56.185Z,24.10
2018-05-06T09:08:23.691Z,24.30
2018-05-06T09:10:51.179Z,24.40
2018-05-06T09:13:20.096Z,24.70
2018-05-06T09:15:47.975Z,24.80
2018-05-06T09:18:15.872Z,24.70
2018-05-06T09:20:43.372Z,24.70
2018-05-06T09:23:10.890Z,24.80
2018-05-06T09:25:38.847Z,24.70
2018-05-06T09:28:06.286Z,24.70
2018-05-06T09:30:33.786Z,24.70
2018-05-06T09:33:01.299Z,24.70
2018-05-06T09:35:28.790Z,24.70
2018-05-06T09:37:56.286Z,24.80
2018-05-06T09:40:23.811Z,24.80
2018-05-06T09:42:51.294Z,24.80
2018-05-06T09:45:18.804Z,24.80
2018-05-06T09:47:46.389Z,24.80
2018-05-06T09:50:13.812Z,24.90
2018-05-06T09:52:41.297Z,24.90
2018-05-06T09:55:08.802Z,24.80
2018-05-06T09:57:36.287Z,25.00
2018-05-06T10:00:04.199Z,25.20
2018-05-06T10:02:31.686Z,25.10
2018-05-06T10:04:59.203Z,25.20
2018-05-06T10:07:26.695Z,25.10
2018-05-06T10:09:54.199Z,25.10
2018-05-06T10:12:21.700Z,25.00
2018-05-06T10:14:49.293Z,25.20
2018-05-06T10:17:16.778Z,25.20
2018-05-06T10:19:44.283Z,25.20
2018-05-06T10:22:11.815Z,25.40
2018-05-06T10:24:39.290Z,25.50
2018-05-06T10:29:41.095Z,25.60
2018-05-06T10:32:08.596Z,25.60
2018-05-06T10:34:36.114Z,25.50
2018-05-06T10:37:04.000Z,25.60
2018-05-06T10:39:31.901Z,25.50
2018-05-06T10:41:59.452Z,25.50
2018-05-06T10:44:27.419Z,25.80
2018-05-06T10:46:54.859Z,25.80
2018-05-06T10:49:22.406Z,25.90
2018-05-06T10:51:50.267Z,26.10
2018-05-06T10:54:18.163Z,26.10
2018-05-06T10:56:45.646Z,26.10
2018-05-06T10:59:13.151Z,25.90
2018-05-06T11:01:40.638Z,25.90
2018-05-06T11:04:08.196Z,26.00
2018-05-06T11:06:35.646Z,25.90
2018-05-06T11:09:03.134Z,25.80
2018-05-06T11:11:30.632Z,25.70
2018-05-06T11:13:58.521Z,26.20
2018-05-06T11:16:26.495Z,26.30
2018-05-06T11:18:54.374Z,26.30
2018-05-06T11:21:22.272Z,26.30
2018-05-06T11:23:49.758Z,26.30
2018-05-06T11:26:17.324Z,26.30
2018-05-06T11:28:44.768Z,26.40
2018-05-06T11:31:12.664Z,26.30
2018-05-06T11:33:40.225Z,26.30
2018-05-06T11:36:07.696Z,26.40
2018-05-06T11:38:35.185Z,26.60
2018-05-06T11:41:02.718Z,26.70
2018-05-06T11:43:30.194Z,26.70
2018-05-06T11:45:57.695Z,26.70
2018-05-06T11:48:25.191Z,26.70
2018-05-06T11:50:52.699Z,26.70
2018-05-06T11:53:20.295Z,26.90
2018-05-06T11:55:48.200Z,27.20
2018-05-06T11:58:15.686Z,27.20
2018-05-06T12:00:43.211Z,27.10
2018-05-06T12:03:11.092Z,27.30
2018-05-06T12:05:39.002Z,27.40
2018-05-06T12:08:06.496Z,27.40
2018-05-06T12:10:33.990Z,27.40
2018-05-06T12:13:01.491Z,27.40
2018-05-06T12:15:29.377Z,27.50
2018-05-06T12:17:56.881Z,27.50
2018-05-06T12:20:24.380Z,27.50
2018-05-06T12:22:51.883Z,27.50
2018-05-06T12:25:19.854Z,27.50
2018-05-06T12:27:47.806Z,27.60
2018-05-06T12:30:15.295Z,27.60
2018-05-06T12:32:42.800Z,27.60
2018-05-06T12:35:10.286Z,27.70
2018-05-06T12:37:37.848Z,27.70
2018-05-06T12:40:05.334Z,27.70
2018-05-06T12:42:32.895Z,27.60
2018-05-06T12:45:00.391Z,27.50
2018-05-06T12:47:27.924Z,27.50
2018-05-06T12:49:55.418Z,27.50
2018-05-06T12:52:22.922Z,27.50
2018-05-06T12:54:50.415Z,27.50
2018-05-06T12:57:18.352Z,27.70
2018-05-06T12:59:45.841Z,27.70
2018-05-06T13:02:13.413Z,27.80
2018-05-06T13:04:40.859Z,27.80
2018-05-06T13:07:08.359Z,27.80
2018-05-06T13:09:35.850Z,27.90
2018-05-06T13:12:03.734Z,27.70
2018-05-06T13:14:31.636Z,27.70
2018-05-06T13:16:59.123Z,27.70
2018-05-06T13:19:26.679Z,27.60
2018-05-06T13:21:54.166Z,27.50
2018-05-06T13:24:21.722Z,27.40
2018-05-06T13:26:49.220Z,27.40
2018-05-06T13:29:16.730Z,27.40
2018-05-06T13:31:44.219Z,27.50
2018-05-06T13:34:12.111Z,27.70
2018-05-06T13:36:39.594Z,27.70
2018-05-06T13:39:07.095Z,27.80
2018-05-06T13:41:34.583Z,27.80
2018-05-06T13:44:02.226Z,27.80
2018-05-06T13:46:29.675Z,27.90
2018-05-06T13:48:57.179Z,27.80
2018-05-06T13:51:24.709Z,27.70
2018-05-06T13:53:52.215Z,27.70
2018-05-06T13:56:19.707Z,27.70
2018-05-06T13:58:47.295Z,27.50
2018-05-06T14:01:14.782Z,27.40
2018-05-06T14:03:42.711Z,27.50
2018-05-06T14:06:10.201Z,27.50
2018-05-06T14:08:37.707Z,27.40
2018-05-06T14:11:05.592Z,27.50
2018-05-06T14:13:33.091Z,27.50
2018-05-06T14:16:00.588Z,27.40
2018-05-06T14:18:28.095Z,27.40
2018-05-06T14:20:55.983Z,27.50
2018-05-06T14:23:23.886Z,27.50
2018-05-06T14:25:51.371Z,27.60
2018-05-06T14:28:18.880Z,27.50
2018-05-06T14:30:46.372Z,27.50
2018-05-06T14:33:14.271Z,27.40
2018-05-06T14:35:41.760Z,27.30
2018-05-06T14:38:09.246Z,27.30
2018-05-06T14:40:36.853Z,27.20
2018-05-06T14:43:04.735Z,27.10
2018-05-06T14:45:32.631Z,27.10
2018-05-06T14:48:11.971Z,27.10
2018-05-06T14:50:39.530Z,27.10
2018-05-06T14:53:07.019Z,27.20
2018-05-06T14:55:34.914Z,27.30
2018-05-06T14:58:02.400Z,27.30
2018-05-06T15:00:29.904Z,27.30
2018-05-06T15:02:57.397Z,27.40
2018-05-06T15:05:25.294Z,27.60
2018-05-06T15:07:53.259Z,27.60
2018-05-06T15:10:21.178Z,27.50
2018-05-06T15:12:48.669Z,27.50
2018-05-06T15:15:16.168Z,27.50
2018-05-06T15:17:43.755Z,27.50
2018-05-06T15:20:11.655Z,27.40
2018-05-06T15:22:39.146Z,27.50
2018-05-06T15:25:06.655Z,27.50
2018-05-06T15:27:34.155Z,27.60
2018-05-06T15:30:02.080Z,27.70
2018-05-06T15:32:29.567Z,27.70
2018-05-06T15:34:57.167Z,27.50
2018-05-06T15:37:25.055Z,27.50
2018-05-06T15:39:53.041Z,27.50
2018-05-06T15:42:20.937Z,27.40
2018-05-06T15:44:48.446Z,27.40
2018-05-06T15:47:15.943Z,27.40
2018-05-06T15:49:43.451Z,27.40
2018-05-06T15:52:10.942Z,27.40
2018-05-06T15:54:38.450Z,27.30
2018-05-06T15:57:05.943Z,27.30
2018-05-06T15:59:33.851Z,27.30
2018-05-06T16:05:19.164Z,27.30
2018-05-06T16:07:46.658Z,27.30
2018-05-06T16:10:14.159Z,27.30
2018-05-06T16:12:41.657Z,27.20
2018-05-06T16:15:09.558Z,27.30
2018-05-06T16:17:37.126Z,27.30
2018-05-06T16:20:04.572Z,27.30
2018-05-06T16:22:32.288Z,27.30
2018-05-06T16:25:00.431Z,27.30
2018-05-06T16:27:27.939Z,27.10
2018-05-06T16:29:55.435Z,27.00
2018-05-06T16:32:22.947Z,27.00
2018-05-06T16:34:50.442Z,26.90
2018-05-06T16:37:17.951Z,26.80
2018-05-06T16:39:45.460Z,26.80
2018-05-06T16:42:13.363Z,26.80
2018-05-06T16:44:40.859Z,26.70
2018-05-06T16:47:08.661Z,26.70
2018-05-06T16:49:36.270Z,26.70
2018-05-06T16:52:04.171Z,26.60
2018-05-06T16:54:31.659Z,26.70
2018-05-06T16:56:59.167Z,26.70
2018-05-06T16:59:26.654Z,26.50
2018-05-06T17:01:54.159Z,26.40
2018-05-06T17:04:21.643Z,26.30
2018-05-06T17:06:49.176Z,26.20
2018-05-06T17:09:17.076Z,26.00
2018-05-06T17:11:44.650Z,26.00
2018-05-06T17:14:12.164Z,25.90
2018-05-06T17:16:39.676Z,25.90
2018-05-06T17:19:07.567Z,25.90
2018-05-06T17:21:35.070Z,25.90
2018-05-06T17:24:02.555Z,25.80
2018-05-06T17:26:30.087Z,25.80
2018-05-06T17:28:57.579Z,25.80
2018-05-06T17:31:25.080Z,25.60
2018-05-06T17:33:52.567Z,25.60
2018-05-06T17:36:20.463Z,25.50
2018-05-06T17:38:47.955Z,25.50
2018-05-06T17:41:15.458Z,25.50
2018-05-06T17:43:42.940Z,25.50
2018-05-06T17:46:10.442Z,25.40
2018-05-06T17:48:37.998Z,25.40
2018-05-06T17:51:05.984Z,25.30
2018-05-06T17:53:34.810Z,25.20
2018-05-06T17:56:02.295Z,25.20
2018-05-06T17:58:29.795Z,25.20
2018-05-06T18:00:57.282Z,25.20
2018-05-06T18:03:24.782Z,25.00
2018-05-06T18:05:52.663Z,24.90
2018-05-06T18:08:20.563Z,24.80
2018-05-06T18:10:48.047Z,24.90
2018-05-06T18:13:15.552Z,24.80
2018-05-06T18:15:43.161Z,24.80
2018-05-06T18:18:10.668Z,24.70
2018-05-06T18:20:38.162Z,24.70
2018-05-06T18:23:05.759Z,24.60
2018-05-06T18:25:33.642Z,24.40
2018-05-06T18:28:01.539Z,24.30
2018-05-06T18:30:29.027Z,24.30
2018-05-06T18:32:56.537Z,24.20
2018-05-06T18:35:24.032Z,24.10
2018-05-06T18:37:51.560Z,24.00
2018-05-06T18:40:19.051Z,23.90
2018-05-06T18:42:46.557Z,23.80
2018-05-06T18:45:14.047Z,23.70
2018-05-06T18:47:41.951Z,23.40
2018-05-06T18:50:09.507Z,23.50
2018-05-06T18:52:37.476Z,23.00
2018-05-06T18:55:04.915Z,23.10
2018-05-06T18:57:32.421Z,23.00
2018-05-06T19:00:00.309Z,22.80
2018-05-06T19:02:28.211Z,22.70
2018-05-06T19:04:55.708Z,22.70
2018-05-06T19:07:23.212Z,22.70
2018-05-06T19:09:50.707Z,22.60
2018-05-06T19:12:18.237Z,22.50
2018-05-06T19:14:45.728Z,22.40
2018-05-06T19:17:13.219Z,22.20
2018-05-06T19:19:40.732Z,22.20
2018-05-06T19:22:08.231Z,22.00
2018-05-06T19:24:35.743Z,22.00
2018-05-06T19:27:03.235Z,22.00
2018-05-06T19:29:30.795Z,21.90
2018-05-06T19:31:58.644Z,21.60
2018-05-06T19:34:26.628Z,21.50
2018-05-06T19:36:54.517Z,21.40
2018-05-06T19:39:22.028Z,21.50
2018-05-06T19:41:49.520Z,21.30
2018-05-06T19:44:17.032Z,21.30
2018-05-06T19:46:44.532Z,21.20
2018-05-06T19:49:12.038Z,21.10
2018-05-06T19:51:39.536Z,21.10
2018-05-06T19:54:07.079Z,21.10
2018-05-06T19:56:34.575Z,21.00
2018-05-06T19:59:02.484Z,20.80
2018-05-06T20:01:30.009Z,20.90
2018-05-06T20:03:57.532Z,20.80
2018-05-06T20:06:25.025Z,20.70
2018-05-06T20:08:52.546Z,20.60
2018-05-06T20:11:20.441Z,20.40
2018-05-06T20:13:47.965Z,20.40
2018-05-06T20:16:15.806Z,20.30
2018-05-06T20:18:43.263Z,20.30
2018-05-06T20:21:10.751Z,20.20
2018-05-06T20:23:38.267Z,20.20
2018-05-06T20:26:05.751Z,20.10
2018-05-06T20:28:33.651Z,20.00
2018-05-06T20:31:01.211Z,20.00
2018-05-06T20:33:29.098Z,20.00
2018-05-06T20:35:56.661Z,20.00
2018-05-06T20:38:24.579Z,19.90
2018-05-06T20:40:52.070Z,19.90
2018-05-06T20:43:19.564Z,19.90
2018-05-06T20:45:47.095Z,19.80
2018-05-06T20:48:14.583Z,19.80
2018-05-06T20:50:42.097Z,19.70
2018-05-06T20:53:10.027Z,19.50
2018-05-06T20:55:37.527Z,19.60
2018-05-06T20:58:05.098Z,19.50
2018-05-06T21:00:32.606Z,19.40
2018-05-06T21:03:00.095Z,19.40
2018-05-06T21:05:27.595Z,19.50
2018-05-06T21:07:55.100Z,19.40
2018-05-06T21:10:23.012Z,19.30
2018-05-06T21:12:50.512Z,19.30
2018-05-06T21:15:17.999Z,19.30
2018-05-06T21:17:45.504Z,19.10
2018-05-06T21:20:13.384Z,19.00
2018-05-06T21:22:41.285Z,19.00
2018-05-06T21:25:08.783Z,19.00
2018-05-06T21:27:36.370Z,18.90
2018-05-06T21:30:04.200Z,18.70
2018-05-06T21:32:31.772Z,18.70
2018-05-06T21:34:59.267Z,18.60
2018-05-06T21:37:26.771Z,18.60
2018-05-06T21:39:54.260Z,18.50
2018-05-06T21:42:22.423Z,18.50
2018-05-06T21:44:49.927Z,18.50
2018-05-06T21:47:17.423Z,18.40
2018-05-06T21:49:44.923Z,18.20
2018-05-06T21:52:12.407Z,18.20
2018-05-06T21:54:39.909Z,18.10
2018-05-06T21:57:07.792Z,17.90
2018-05-06T21:59:35.759Z,17.90
2018-05-06T22:02:03.639Z,17.90
2018-05-06T22:04:31.540Z,17.80
2018-05-06T22:06:59.037Z,17.80
2018-05-06T22:09:26.540Z,17.80
2018-05-06T22:11:54.030Z,17.70
2018-05-06T22:14:21.933Z,17.50
2018-05-06T22:16:49.423Z,17.60
2018-05-06T22:19:16.931Z,17.50
2018-05-06T22:21:44.419Z,17.50
2018-05-06T22:24:12.321Z,17.40
2018-05-06T22:26:39.815Z,17.50
2018-05-06T22:29:07.340Z,17.40
2018-05-06T22:31:34.831Z,17.40
2018-05-06T22:34:02.343Z,17.40
2018-05-06T22:36:29.836Z,17.40
2018-05-06T22:38:57.345Z,17.40
2018-05-06T22:41:24.844Z,17.30
2018-05-06T22:43:52.352Z,17.30
2018-05-06T22:46:19.843Z,17.20
2018-05-06T22:48:47.356Z,17.20
2018-05-06T22:51:14.843Z,17.10
2018-05-06T22:53:42.348Z,17.10
2018-05-06T22:56:09.859Z,17.10
2018-05-06T22:58:37.367Z,17.00
2018-05-06T23:01:04.895Z,16.90
2018-05-06T23:03:32.396Z,16.90
2018-05-06T23:05:59.911Z,16.90
2018-05-06T23:08:27.819Z,16.80
2018-05-06T23:10:55.305Z,16.80
2018-05-06T23:13:22.799Z,16.70
2018-05-06T23:15:50.303Z,16.70
2018-05-06T23:18:18.184Z,16.50
2018-05-06T23:20:46.091Z,16.50
2018-05-06T23:23:13.580Z,16.60
2018-05-06T23:25:41.088Z,16.60
2018-05-06T23:28:08.595Z,16.60
2018-05-06T23:30:36.109Z,16.60
2018-05-06T23:33:03.603Z,16.60
2018-05-06T23:35:31.186Z,16.60
2018-05-06T23:37:58.629Z,16.60
2018-05-06T23:40:26.144Z,16.70
2018-05-06T23:42:54.055Z,16.60
2018-05-06T23:45:21.575Z,16.70
2018-05-06T23:47:49.064Z,16.50
2018-05-06T23:50:16.969Z,16.30
2018-05-06T23:52:44.481Z,16.40
2018-05-06T23:55:11.996Z,16.30
2018-05-06T23:57:39.492Z,16.40
